sensor_id;sensor_type;location;lat;lon;timestamp;P1;durP1;ratioP1;P2;durP2;ratioP2
23573;SDS011;11965;53.640;10.050;2023-02-28T00:00:20;11.42;;;11.27;;
23573;SDS011;11965;53.640;10.050;2023-02-28T00:02:48;11.58;;;11.45;;
23573;SDS011;11965;53.640;10.050;2023-02-28T00:05:16;11.46;;;11.37;;
23573;SDS011;11965;53.640;10.050;2023-02-28T00:07:45;10.60;;;10.55;;
23573;SDS011;11965;53.640;10.050;2023-02-28T00:10:14;10.48;;;10.39;;
23573;SDS011;11965;53.640;10.050;2023-02-28T00:12:44;8.87;;;8.77;;
23573;SDS011;11965;53.640;10.050;2023-02-28T00:15:12;8.96;;;8.84;;
23573;SDS011;11965;53.640;10.050;2023-02-28T00:17:39;8.89;;;8.88;;
23573;SDS011;11965;53.640;10.050;2023-02-28T00:20:06;9.19;;;9.11;;
23573;SDS011;11965;53.640;10.050;2023-02-28T00:22:36;9.32;;;9.19;;
23573;SDS011;11965;53.640;10.050;2023-02-28T00:25:04;9.15;;;9.03;;
23573;SDS011;11965;53.640;10.050;2023-02-28T00:27:32;8.91;;;8.81;;
23573;SDS011;11965;53.640;10.050;2023-02-28T00:29:59;9.74;;;9.66;;
23573;SDS011;11965;53.640;10.050;2023-02-28T00:32:27;9.81;;;9.75;;
23573;SDS011;11965;53.640;10.050;2023-02-28T00:34:54;8.99;;;8.90;;
23573;SDS011;11965;53.640;10.050;2023-02-28T00:37:22;9.31;;;9.25;;
23573;SDS011;11965;53.640;10.050;2023-02-28T00:39:49;9.64;;;9.62;;
23573;SDS011;11965;53.640;10.050;2023-02-28T00:42:15;9.50;;;9.49;;
23573;SDS011;11965;53.640;10.050;2023-02-28T00:44:42;9.27;;;9.27;;
23573;SDS011;11965;53.640;10.050;2023-02-28T00:47:10;9.09;;;9.04;;
23573;SDS011;11965;53.640;10.050;2023-02-28T00:49:38;9.47;;;9.41;;
23573;SDS011;11965;53.640;10.050;2023-02-28T00:52:05;9.21;;;9.16;;
23573;SDS011;11965;53.640;10.050;2023-02-28T00:54:32;9.31;;;9.27;;
23573;SDS011;11965;53.640;10.050;2023-02-28T00:56:59;8.93;;;8.92;;
23573;SDS011;11965;53.640;10.050;2023-02-28T00:59:26;9.15;;;9.13;;
23573;SDS011;11965;53.640;10.050;2023-02-28T01:01:53;9.16;;;9.11;;
23573;SDS011;11965;53.640;10.050;2023-02-28T01:04:21;8.76;;;8.71;;
23573;SDS011;11965;53.640;10.050;2023-02-28T01:06:49;9.00;;;8.99;;
23573;SDS011;11965;53.640;10.050;2023-02-28T01:09:16;8.51;;;8.50;;
23573;SDS011;11965;53.640;10.050;2023-02-28T01:11:43;8.43;;;8.33;;
23573;SDS011;11965;53.640;10.050;2023-02-28T01:14:11;8.49;;;8.42;;
23573;SDS011;11965;53.640;10.050;2023-02-28T01:16:39;7.81;;;7.74;;
23573;SDS011;11965;53.640;10.050;2023-02-28T01:19:06;7.66;;;7.62;;
23573;SDS011;11965;53.640;10.050;2023-02-28T01:21:33;8.09;;;8.03;;
23573;SDS011;11965;53.640;10.050;2023-02-28T01:24:02;7.99;;;7.95;;
23573;SDS011;11965;53.640;10.050;2023-02-28T01:26:30;7.79;;;7.76;;
23573;SDS011;11965;53.640;10.050;2023-02-28T01:28:58;8.06;;;8.02;;
23573;SDS011;11965;53.640;10.050;2023-02-28T01:31:25;7.48;;;7.44;;
23573;SDS011;11965;53.640;10.050;2023-02-28T01:33:52;7.73;;;7.70;;
23573;SDS011;11965;53.640;10.050;2023-02-28T01:36:19;7.29;;;7.27;;
23573;SDS011;11965;53.640;10.050;2023-02-28T01:38:48;7.52;;;7.48;;
23573;SDS011;11965;53.640;10.050;2023-02-28T01:41:18;7.52;;;7.41;;
23573;SDS011;11965;53.640;10.050;2023-02-28T01:46:34;7.68;;;7.65;;
23573;SDS011;11965;53.640;10.050;2023-02-28T01:49:04;7.39;;;7.35;;
23573;SDS011;11965;53.640;10.050;2023-02-28T01:51:37;7.96;;;7.86;;
23573;SDS011;11965;53.640;10.050;2023-02-28T01:54:12;7.70;;;7.64;;
23573;SDS011;11965;53.640;10.050;2023-02-28T01:56:45;7.50;;;7.47;;
23573;SDS011;11965;53.640;10.050;2023-02-28T01:59:20;7.65;;;7.60;;
23573;SDS011;11965;53.640;10.050;2023-02-28T02:01:54;7.68;;;7.60;;
23573;SDS011;11965;53.640;10.050;2023-02-28T02:04:21;7.96;;;7.89;;
23573;SDS011;11965;53.640;10.050;2023-02-28T02:06:54;7.32;;;7.31;;
23573;SDS011;11965;53.640;10.050;2023-02-28T02:09:21;7.54;;;7.54;;
23573;SDS011;11965;53.640;10.050;2023-02-28T02:11:50;7.38;;;7.38;;
23573;SDS011;11965;53.640;10.050;2023-02-28T02:14:30;7.30;;;7.29;;
23573;SDS011;11965;53.640;10.050;2023-02-28T02:17:10;7.91;;;7.87;;
23573;SDS011;11965;53.640;10.050;2023-02-28T02:25:55;7.62;;;7.56;;
23573;SDS011;11965;53.640;10.050;2023-02-28T02:28:39;7.25;;;7.25;;
23573;SDS011;11965;53.640;10.050;2023-02-28T02:31:29;7.71;;;7.68;;
23573;SDS011;11965;53.640;10.050;2023-02-28T02:34:29;7.88;;;7.80;;
23573;SDS011;11965;53.640;10.050;2023-02-28T02:37:15;7.84;;;7.72;;
23573;SDS011;11965;53.640;10.050;2023-02-28T02:40:00;7.84;;;7.79;;
23573;SDS011;11965;53.640;10.050;2023-02-28T02:42:39;7.78;;;7.70;;
23573;SDS011;11965;53.640;10.050;2023-02-28T02:45:15;8.10;;;7.93;;
23573;SDS011;11965;53.640;10.050;2023-02-28T02:47:47;7.73;;;7.64;;
23573;SDS011;11965;53.640;10.050;2023-02-28T02:50:19;8.09;;;8.06;;
23573;SDS011;11965;53.640;10.050;2023-02-28T02:52:52;8.03;;;7.97;;
23573;SDS011;11965;53.640;10.050;2023-02-28T02:55:24;7.71;;;7.69;;
23573;SDS011;11965;53.640;10.050;2023-02-28T02:57:53;7.68;;;7.62;;
23573;SDS011;11965;53.640;10.050;2023-02-28T03:00:27;7.80;;;7.68;;
23573;SDS011;11965;53.640;10.050;2023-02-28T03:03:02;8.02;;;7.85;;
23573;SDS011;11965;53.640;10.050;2023-02-28T03:05:32;8.27;;;8.17;;
23573;SDS011;11965;53.640;10.050;2023-02-28T03:08:07;8.02;;;7.95;;
23573;SDS011;11965;53.640;10.050;2023-02-28T03:10:36;7.87;;;7.85;;
23573;SDS011;11965;53.640;10.050;2023-02-28T03:16:11;8.04;;;7.99;;
23573;SDS011;11965;53.640;10.050;2023-02-28T03:18:57;7.99;;;7.93;;
23573;SDS011;11965;53.640;10.050;2023-02-28T03:21:40;7.93;;;7.86;;
23573;SDS011;11965;53.640;10.050;2023-02-28T03:24:15;7.75;;;7.74;;
23573;SDS011;11965;53.640;10.050;2023-02-28T03:26:52;7.84;;;7.82;;
23573;SDS011;11965;53.640;10.050;2023-02-28T03:29:27;7.41;;;7.40;;
23573;SDS011;11965;53.640;10.050;2023-02-28T03:32:02;7.59;;;7.55;;
23573;SDS011;11965;53.640;10.050;2023-02-28T03:34:39;7.73;;;7.67;;
23573;SDS011;11965;53.640;10.050;2023-02-28T03:37:18;7.80;;;7.73;;
23573;SDS011;11965;53.640;10.050;2023-02-28T03:39:51;7.51;;;7.44;;
23573;SDS011;11965;53.640;10.050;2023-02-28T03:42:25;7.85;;;7.82;;
23573;SDS011;11965;53.640;10.050;2023-02-28T03:44:56;7.51;;;7.50;;
23573;SDS011;11965;53.640;10.050;2023-02-28T03:47:28;7.99;;;7.95;;
23573;SDS011;11965;53.640;10.050;2023-02-28T03:50:01;7.75;;;7.72;;
23573;SDS011;11965;53.640;10.050;2023-02-28T03:52:36;7.68;;;7.63;;
23573;SDS011;11965;53.640;10.050;2023-02-28T03:55:10;7.36;;;7.31;;
23573;SDS011;11965;53.640;10.050;2023-02-28T03:57:42;7.55;;;7.45;;
23573;SDS011;11965;53.640;10.050;2023-02-28T04:00:25;7.33;;;7.25;;
23573;SDS011;11965;53.640;10.050;2023-02-28T04:02:56;8.36;;;8.26;;
23573;SDS011;11965;53.640;10.050;2023-02-28T04:05:23;7.78;;;7.74;;
23573;SDS011;11965;53.640;10.050;2023-02-28T04:07:52;7.82;;;7.82;;
23573;SDS011;11965;53.640;10.050;2023-02-28T04:10:19;7.89;;;7.86;;
23573;SDS011;11965;53.640;10.050;2023-02-28T04:12:46;7.99;;;7.98;;
23573;SDS011;11965;53.640;10.050;2023-02-28T04:15:13;8.36;;;8.32;;
23573;SDS011;11965;53.640;10.050;2023-02-28T04:17:40;7.95;;;7.94;;
23573;SDS011;11965;53.640;10.050;2023-02-28T04:20:07;7.77;;;7.71;;
23573;SDS011;11965;53.640;10.050;2023-02-28T04:22:35;8.26;;;8.18;;
23573;SDS011;11965;53.640;10.050;2023-02-28T04:25:05;8.00;;;7.92;;
23573;SDS011;11965;53.640;10.050;2023-02-28T04:27:32;7.74;;;7.66;;
23573;SDS011;11965;53.640;10.050;2023-02-28T04:29:59;8.02;;;7.98;;
23573;SDS011;11965;53.640;10.050;2023-02-28T04:32:26;7.77;;;7.77;;
23573;SDS011;11965;53.640;10.050;2023-02-28T04:34:53;7.94;;;7.93;;
23573;SDS011;11965;53.640;10.050;2023-02-28T04:37:20;8.10;;;8.07;;
23573;SDS011;11965;53.640;10.050;2023-02-28T04:39:53;7.93;;;7.83;;
23573;SDS011;11965;53.640;10.050;2023-02-28T04:42:21;8.40;;;8.32;;
23573;SDS011;11965;53.640;10.050;2023-02-28T04:44:48;8.09;;;8.02;;
23573;SDS011;11965;53.640;10.050;2023-02-28T04:47:15;8.07;;;7.98;;
23573;SDS011;11965;53.640;10.050;2023-02-28T04:49:41;8.26;;;8.16;;
23573;SDS011;11965;53.640;10.050;2023-02-28T04:52:08;8.65;;;8.58;;
23573;SDS011;11965;53.640;10.050;2023-02-28T04:54:35;8.98;;;8.92;;
23573;SDS011;11965;53.640;10.050;2023-02-28T04:57:04;8.73;;;8.72;;
23573;SDS011;11965;53.640;10.050;2023-02-28T04:59:32;8.65;;;8.61;;
23573;SDS011;11965;53.640;10.050;2023-02-28T05:01:59;8.35;;;8.33;;
23573;SDS011;11965;53.640;10.050;2023-02-28T05:04:32;9.00;;;8.94;;
23573;SDS011;11965;53.640;10.050;2023-02-28T05:06:59;10.80;;;10.73;;
23573;SDS011;11965;53.640;10.050;2023-02-28T05:09:27;10.61;;;10.55;;
23573;SDS011;11965;53.640;10.050;2023-02-28T05:11:54;11.04;;;10.92;;
23573;SDS011;11965;53.640;10.050;2023-02-28T05:14:21;11.79;;;11.72;;
23573;SDS011;11965;53.640;10.050;2023-02-28T05:16:50;10.62;;;10.56;;
23573;SDS011;11965;53.640;10.050;2023-02-28T05:19:17;10.76;;;10.69;;
23573;SDS011;11965;53.640;10.050;2023-02-28T05:21:48;10.68;;;10.56;;
23573;SDS011;11965;53.640;10.050;2023-02-28T05:24:17;10.46;;;10.33;;
23573;SDS011;11965;53.640;10.050;2023-02-28T05:26:48;9.98;;;9.88;;
23573;SDS011;11965;53.640;10.050;2023-02-28T05:29:17;10.19;;;10.12;;
23573;SDS011;11965;53.640;10.050;2023-02-28T05:31:44;11.55;;;11.48;;
23573;SDS011;11965;53.640;10.050;2023-02-28T05:34:12;12.01;;;11.87;;
23573;SDS011;11965;53.640;10.050;2023-02-28T05:36:40;13.04;;;12.76;;
23573;SDS011;11965;53.640;10.050;2023-02-28T05:39:08;11.70;;;11.56;;
23573;SDS011;11965;53.640;10.050;2023-02-28T05:41:38;10.38;;;10.33;;
23573;SDS011;11965;53.640;10.050;2023-02-28T05:44:06;10.11;;;10.04;;
23573;SDS011;11965;53.640;10.050;2023-02-28T05:46:33;9.74;;;9.66;;
23573;SDS011;11965;53.640;10.050;2023-02-28T05:49:00;9.44;;;9.36;;
23573;SDS011;11965;53.640;10.050;2023-02-28T05:51:29;9.10;;;9.06;;
23573;SDS011;11965;53.640;10.050;2023-02-28T05:53:58;8.96;;;8.95;;
23573;SDS011;11965;53.640;10.050;2023-02-28T05:56:26;8.94;;;8.91;;
23573;SDS011;11965;53.640;10.050;2023-02-28T05:58:53;9.22;;;9.19;;
23573;SDS011;11965;53.640;10.050;2023-02-28T06:01:21;10.24;;;10.18;;
23573;SDS011;11965;53.640;10.050;2023-02-28T06:03:50;11.34;;;11.22;;
23573;SDS011;11965;53.640;10.050;2023-02-28T06:06:17;11.48;;;11.25;;
23573;SDS011;11965;53.640;10.050;2023-02-28T06:08:46;11.50;;;11.40;;
23573;SDS011;11965;53.640;10.050;2023-02-28T06:11:13;10.61;;;10.51;;
23573;SDS011;11965;53.640;10.050;2023-02-28T06:13:40;11.59;;;11.49;;
23573;SDS011;11965;53.640;10.050;2023-02-28T06:16:07;11.79;;;11.71;;
23573;SDS011;11965;53.640;10.050;2023-02-28T06:18:35;11.76;;;11.64;;
23573;SDS011;11965;53.640;10.050;2023-02-28T06:21:02;10.98;;;10.80;;
23573;SDS011;11965;53.640;10.050;2023-02-28T06:23:30;10.18;;;10.02;;
23573;SDS011;11965;53.640;10.050;2023-02-28T06:25:58;10.78;;;10.72;;
23573;SDS011;11965;53.640;10.050;2023-02-28T06:28:25;11.04;;;10.95;;
23573;SDS011;11965;53.640;10.050;2023-02-28T06:30:52;10.81;;;10.70;;
23573;SDS011;11965;53.640;10.050;2023-02-28T06:33:19;11.08;;;11.07;;
23573;SDS011;11965;53.640;10.050;2023-02-28T06:35:46;11.65;;;11.57;;
23573;SDS011;11965;53.640;10.050;2023-02-28T06:38:14;11.53;;;11.41;;
23573;SDS011;11965;53.640;10.050;2023-02-28T06:40:41;12.37;;;12.26;;
23573;SDS011;11965;53.640;10.050;2023-02-28T06:43:10;12.85;;;12.81;;
23573;SDS011;11965;53.640;10.050;2023-02-28T06:45:41;12.72;;;12.54;;
23573;SDS011;11965;53.640;10.050;2023-02-28T06:48:08;12.94;;;12.77;;
23573;SDS011;11965;53.640;10.050;2023-02-28T06:50:35;11.90;;;11.76;;
23573;SDS011;11965;53.640;10.050;2023-02-28T06:53:03;12.90;;;12.78;;
23573;SDS011;11965;53.640;10.050;2023-02-28T06:55:30;12.81;;;12.68;;
23573;SDS011;11965;53.640;10.050;2023-02-28T06:57:57;12.76;;;12.70;;
23573;SDS011;11965;53.640;10.050;2023-02-28T07:00:26;13.38;;;13.33;;
23573;SDS011;11965;53.640;10.050;2023-02-28T07:02:52;13.84;;;13.75;;
23573;SDS011;11965;53.640;10.050;2023-02-28T07:05:21;14.02;;;13.94;;
23573;SDS011;11965;53.640;10.050;2023-02-28T07:07:48;13.99;;;13.95;;
23573;SDS011;11965;53.640;10.050;2023-02-28T07:10:14;14.13;;;14.04;;
23573;SDS011;11965;53.640;10.050;2023-02-28T07:12:42;13.76;;;13.73;;
23573;SDS011;11965;53.640;10.050;2023-02-28T07:15:09;13.65;;;13.58;;
23573;SDS011;11965;53.640;10.050;2023-02-28T07:17:38;14.05;;;13.93;;
23573;SDS011;11965;53.640;10.050;2023-02-28T07:20:05;13.79;;;13.76;;
23573;SDS011;11965;53.640;10.050;2023-02-28T07:22:33;13.92;;;13.81;;
23573;SDS011;11965;53.640;10.050;2023-02-28T07:25:00;13.45;;;13.39;;
23573;SDS011;11965;53.640;10.050;2023-02-28T07:27:27;13.10;;;13.03;;
23573;SDS011;11965;53.640;10.050;2023-02-28T07:29:54;13.61;;;13.52;;
23573;SDS011;11965;53.640;10.050;2023-02-28T07:32:21;13.34;;;13.31;;
23573;SDS011;11965;53.640;10.050;2023-02-28T07:34:49;13.36;;;13.36;;
23573;SDS011;11965;53.640;10.050;2023-02-28T07:37:16;13.19;;;13.19;;
23573;SDS011;11965;53.640;10.050;2023-02-28T07:39:43;13.76;;;13.71;;
23573;SDS011;11965;53.640;10.050;2023-02-28T07:42:10;13.73;;;13.68;;
23573;SDS011;11965;53.640;10.050;2023-02-28T07:44:38;14.95;;;14.70;;
23573;SDS011;11965;53.640;10.050;2023-02-28T07:47:06;15.50;;;15.27;;
23573;SDS011;11965;53.640;10.050;2023-02-28T07:49:34;15.52;;;15.43;;
23573;SDS011;11965;53.640;10.050;2023-02-28T07:52:03;15.17;;;15.17;;
23573;SDS011;11965;53.640;10.050;2023-02-28T07:54:30;16.07;;;16.07;;
23573;SDS011;11965;53.640;10.050;2023-02-28T07:56:57;16.12;;;16.11;;
23573;SDS011;11965;53.640;10.050;2023-02-28T07:59:24;15.20;;;15.19;;
23573;SDS011;11965;53.640;10.050;2023-02-28T08:01:51;15.59;;;15.59;;
23573;SDS011;11965;53.640;10.050;2023-02-28T08:04:18;15.87;;;15.84;;
23573;SDS011;11965;53.640;10.050;2023-02-28T08:06:45;15.64;;;15.57;;
23573;SDS011;11965;53.640;10.050;2023-02-28T08:09:14;14.76;;;14.65;;
23573;SDS011;11965;53.640;10.050;2023-02-28T08:11:40;14.28;;;14.17;;
23573;SDS011;11965;53.640;10.050;2023-02-28T08:14:07;13.91;;;13.89;;
23573;SDS011;11965;53.640;10.050;2023-02-28T08:16:34;14.56;;;14.55;;
23573;SDS011;11965;53.640;10.050;2023-02-28T08:19:01;14.26;;;14.25;;
23573;SDS011;11965;53.640;10.050;2023-02-28T08:21:29;39.43;;;38.58;;
23573;SDS011;11965;53.640;10.050;2023-02-28T08:23:55;17.02;;;16.76;;
23573;SDS011;11965;53.640;10.050;2023-02-28T08:26:24;15.19;;;15.15;;
23573;SDS011;11965;53.640;10.050;2023-02-28T08:28:51;16.04;;;16.03;;
23573;SDS011;11965;53.640;10.050;2023-02-28T08:31:18;20.23;;;20.09;;
23573;SDS011;11965;53.640;10.050;2023-02-28T08:33:45;18.32;;;18.10;;
23573;SDS011;11965;53.640;10.050;2023-02-28T08:36:13;16.30;;;16.21;;
23573;SDS011;11965;53.640;10.050;2023-02-28T08:38:40;15.37;;;15.35;;
23573;SDS011;11965;53.640;10.050;2023-02-28T08:41:09;14.87;;;14.85;;
23573;SDS011;11965;53.640;10.050;2023-02-28T08:43:39;15.69;;;15.43;;
23573;SDS011;11965;53.640;10.050;2023-02-28T08:46:07;12.31;;;12.17;;
23573;SDS011;11965;53.640;10.050;2023-02-28T08:48:37;11.02;;;10.98;;
23573;SDS011;11965;53.640;10.050;2023-02-28T08:51:05;11.20;;;11.17;;
23573;SDS011;11965;53.640;10.050;2023-02-28T08:53:34;14.28;;;14.28;;
23573;SDS011;11965;53.640;10.050;2023-02-28T08:56:01;10.51;;;10.51;;
23573;SDS011;11965;53.640;10.050;2023-02-28T08:58:30;10.22;;;10.17;;
23573;SDS011;11965;53.640;10.050;2023-02-28T09:00:58;9.12;;;9.04;;
23573;SDS011;11965;53.640;10.050;2023-02-28T09:03:25;9.07;;;9.04;;
23573;SDS011;11965;53.640;10.050;2023-02-28T09:05:53;8.36;;;8.33;;
23573;SDS011;11965;53.640;10.050;2023-02-28T09:08:21;8.69;;;8.67;;
23573;SDS011;11965;53.640;10.050;2023-02-28T09:10:49;8.79;;;8.78;;
23573;SDS011;11965;53.640;10.050;2023-02-28T09:13:16;8.68;;;8.64;;
23573;SDS011;11965;53.640;10.050;2023-02-28T09:15:43;8.09;;;8.06;;
23573;SDS011;11965;53.640;10.050;2023-02-28T09:18:12;8.40;;;8.39;;
23573;SDS011;11965;53.640;10.050;2023-02-28T09:20:39;7.45;;;7.41;;
23573;SDS011;11965;53.640;10.050;2023-02-28T09:23:07;6.00;;;5.94;;
23573;SDS011;11965;53.640;10.050;2023-02-28T09:25:35;6.19;;;6.19;;
23573;SDS011;11965;53.640;10.050;2023-02-28T09:28:03;40.27;;;40.26;;
23573;SDS011;11965;53.640;10.050;2023-02-28T09:30:30;14.71;;;14.71;;
23573;SDS011;11965;53.640;10.050;2023-02-28T09:32:58;21.68;;;21.28;;
23573;SDS011;11965;53.640;10.050;2023-02-28T09:35:26;6.38;;;6.31;;
23573;SDS011;11965;53.640;10.050;2023-02-28T09:37:53;4.71;;;4.71;;
23573;SDS011;11965;53.640;10.050;2023-02-28T09:40:20;4.73;;;4.73;;
23573;SDS011;11965;53.640;10.050;2023-02-28T09:42:50;4.27;;;4.27;;
23573;SDS011;11965;53.640;10.050;2023-02-28T09:45:22;4.28;;;4.27;;
23573;SDS011;11965;53.640;10.050;2023-02-28T09:47:54;4.35;;;4.31;;
23573;SDS011;11965;53.640;10.050;2023-02-28T09:50:32;4.12;;;4.12;;
23573;SDS011;11965;53.640;10.050;2023-02-28T09:53:05;4.26;;;4.26;;
23573;SDS011;11965;53.640;10.050;2023-02-28T09:55:47;4.17;;;4.17;;
23573;SDS011;11965;53.640;10.050;2023-02-28T09:58:20;4.17;;;4.17;;
23573;SDS011;11965;53.640;10.050;2023-02-28T10:00:56;4.77;;;4.77;;
23573;SDS011;11965;53.640;10.050;2023-02-28T10:03:32;4.44;;;4.44;;
23573;SDS011;11965;53.640;10.050;2023-02-28T10:06:09;4.50;;;4.50;;
23573;SDS011;11965;53.640;10.050;2023-02-28T10:08:42;4.59;;;4.59;;
23573;SDS011;11965;53.640;10.050;2023-02-28T10:11:19;4.91;;;4.90;;
23573;SDS011;11965;53.640;10.050;2023-02-28T10:13:52;4.73;;;4.73;;
23573;SDS011;11965;53.640;10.050;2023-02-28T10:16:28;5.48;;;5.48;;
23573;SDS011;11965;53.640;10.050;2023-02-28T10:19:03;5.31;;;5.31;;
23573;SDS011;11965;53.640;10.050;2023-02-28T10:21:38;5.63;;;5.63;;
23573;SDS011;11965;53.640;10.050;2023-02-28T10:24:16;4.91;;;4.91;;
23573;SDS011;11965;53.640;10.050;2023-02-28T10:26:49;4.62;;;4.62;;
23573;SDS011;11965;53.640;10.050;2023-02-28T10:29:23;4.67;;;4.66;;
23573;SDS011;11965;53.640;10.050;2023-02-28T10:31:50;4.67;;;4.67;;
23573;SDS011;11965;53.640;10.050;2023-02-28T10:34:17;5.33;;;5.33;;
23573;SDS011;11965;53.640;10.050;2023-02-28T10:36:45;4.33;;;4.33;;
23573;SDS011;11965;53.640;10.050;2023-02-28T10:42:02;4.43;;;4.43;;
23573;SDS011;11965;53.640;10.050;2023-02-28T10:44:29;4.33;;;4.33;;
23573;SDS011;11965;53.640;10.050;2023-02-28T10:46:56;4.79;;;4.79;;
23573;SDS011;11965;53.640;10.050;2023-02-28T10:49:25;4.64;;;4.64;;
23573;SDS011;11965;53.640;10.050;2023-02-28T10:51:57;4.46;;;4.46;;
23573;SDS011;11965;53.640;10.050;2023-02-28T10:54:27;4.20;;;4.20;;
23573;SDS011;11965;53.640;10.050;2023-02-28T10:57:06;4.25;;;4.25;;
23573;SDS011;11965;53.640;10.050;2023-02-28T10:59:41;4.13;;;4.13;;
23573;SDS011;11965;53.640;10.050;2023-02-28T11:02:29;4.19;;;4.19;;
23573;SDS011;11965;53.640;10.050;2023-02-28T11:05:00;4.17;;;4.17;;
23573;SDS011;11965;53.640;10.050;2023-02-28T11:07:29;4.10;;;4.10;;
23573;SDS011;11965;53.640;10.050;2023-02-28T11:09:56;4.12;;;4.12;;
23573;SDS011;11965;53.640;10.050;2023-02-28T11:12:25;4.24;;;4.24;;
23573;SDS011;11965;53.640;10.050;2023-02-28T11:14:56;4.25;;;4.25;;
23573;SDS011;11965;53.640;10.050;2023-02-28T11:17:26;4.31;;;4.31;;
23573;SDS011;11965;53.640;10.050;2023-02-28T11:19:57;4.54;;;4.53;;
23573;SDS011;11965;53.640;10.050;2023-02-28T11:22:31;4.36;;;4.36;;
23573;SDS011;11965;53.640;10.050;2023-02-28T11:25:06;4.37;;;4.37;;
23573;SDS011;11965;53.640;10.050;2023-02-28T11:27:42;4.11;;;4.11;;
23573;SDS011;11965;53.640;10.050;2023-02-28T11:30:26;4.48;;;4.48;;
23573;SDS011;11965;53.640;10.050;2023-02-28T11:32:59;4.41;;;4.41;;
23573;SDS011;11965;53.640;10.050;2023-02-28T11:35:27;4.57;;;4.57;;
23573;SDS011;11965;53.640;10.050;2023-02-28T11:37:59;4.03;;;4.02;;
23573;SDS011;11965;53.640;10.050;2023-02-28T11:40:30;4.59;;;4.59;;
23573;SDS011;11965;53.640;10.050;2023-02-28T11:43:08;4.40;;;4.40;;
23573;SDS011;11965;53.640;10.050;2023-02-28T11:45:53;4.32;;;4.32;;
23573;SDS011;11965;53.640;10.050;2023-02-28T11:48:33;4.60;;;4.60;;
23573;SDS011;11965;53.640;10.050;2023-02-28T11:51:15;4.73;;;4.73;;
23573;SDS011;11965;53.640;10.050;2023-02-28T11:54:06;4.35;;;4.35;;
23573;SDS011;11965;53.640;10.050;2023-02-28T11:56:51;4.39;;;4.39;;
23573;SDS011;11965;53.640;10.050;2023-02-28T11:59:29;4.39;;;4.39;;
23573;SDS011;11965;53.640;10.050;2023-02-28T12:02:23;4.70;;;4.70;;
23573;SDS011;11965;53.640;10.050;2023-02-28T12:05:09;4.62;;;4.62;;
23573;SDS011;11965;53.640;10.050;2023-02-28T12:07:54;4.64;;;4.64;;
23573;SDS011;11965;53.640;10.050;2023-02-28T12:10:32;4.47;;;4.47;;
23573;SDS011;11965;53.640;10.050;2023-02-28T12:13:21;4.65;;;4.65;;
23573;SDS011;11965;53.640;10.050;2023-02-28T12:16:09;4.60;;;4.60;;
23573;SDS011;11965;53.640;10.050;2023-02-28T12:19:00;4.89;;;4.89;;
23573;SDS011;11965;53.640;10.050;2023-02-28T12:21:44;4.78;;;4.78;;
23573;SDS011;11965;53.640;10.050;2023-02-28T12:27:44;4.77;;;4.77;;
23573;SDS011;11965;53.640;10.050;2023-02-28T12:30:15;5.02;;;5.00;;
23573;SDS011;11965;53.640;10.050;2023-02-28T12:32:48;4.28;;;4.27;;
23573;SDS011;11965;53.640;10.050;2023-02-28T12:35:23;4.53;;;4.52;;
23573;SDS011;11965;53.640;10.050;2023-02-28T12:37:55;5.09;;;5.09;;
23573;SDS011;11965;53.640;10.050;2023-02-28T12:40:32;4.95;;;4.95;;
23573;SDS011;11965;53.640;10.050;2023-02-28T12:43:13;4.95;;;4.95;;
23573;SDS011;11965;53.640;10.050;2023-02-28T12:45:45;4.99;;;4.99;;
23573;SDS011;11965;53.640;10.050;2023-02-28T12:48:18;5.02;;;5.02;;
23573;SDS011;11965;53.640;10.050;2023-02-28T12:50:52;4.76;;;4.76;;
23573;SDS011;11965;53.640;10.050;2023-02-28T12:53:22;5.06;;;5.06;;
23573;SDS011;11965;53.640;10.050;2023-02-28T12:56:00;5.11;;;5.11;;
23573;SDS011;11965;53.640;10.050;2023-02-28T12:58:41;5.32;;;5.32;;
23573;SDS011;11965;53.640;10.050;2023-02-28T13:01:22;5.24;;;5.24;;
23573;SDS011;11965;53.640;10.050;2023-02-28T13:04:21;5.41;;;5.41;;
23573;SDS011;11965;53.640;10.050;2023-02-28T13:07:29;4.87;;;4.87;;
23573;SDS011;11965;53.640;10.050;2023-02-28T13:10:16;4.96;;;4.96;;
23573;SDS011;11965;53.640;10.050;2023-02-28T13:12:48;5.62;;;5.62;;
23573;SDS011;11965;53.640;10.050;2023-02-28T13:15:19;5.53;;;5.52;;
23573;SDS011;11965;53.640;10.050;2023-02-28T13:17:51;5.46;;;5.46;;
23573;SDS011;11965;53.640;10.050;2023-02-28T13:20:21;5.20;;;5.20;;
23573;SDS011;11965;53.640;10.050;2023-02-28T13:22:52;5.31;;;5.31;;
23573;SDS011;11965;53.640;10.050;2023-02-28T13:34:35;4.67;;;4.67;;
23573;SDS011;11965;53.640;10.050;2023-02-28T13:40:22;4.48;;;4.48;;
23573;SDS011;11965;53.640;10.050;2023-02-28T13:42:55;5.03;;;5.03;;
23573;SDS011;11965;53.640;10.050;2023-02-28T13:45:23;4.73;;;4.73;;
23573;SDS011;11965;53.640;10.050;2023-02-28T13:47:54;5.00;;;5.00;;
23573;SDS011;11965;53.640;10.050;2023-02-28T13:50:30;4.73;;;4.73;;
23573;SDS011;11965;53.640;10.050;2023-02-28T13:56:07;4.68;;;4.68;;
23573;SDS011;11965;53.640;10.050;2023-02-28T13:58:54;4.43;;;4.43;;
23573;SDS011;11965;53.640;10.050;2023-02-28T14:01:36;4.66;;;4.66;;
23573;SDS011;11965;53.640;10.050;2023-02-28T14:07:20;4.57;;;4.57;;
23573;SDS011;11965;53.640;10.050;2023-02-28T14:09:55;4.62;;;4.60;;
23573;SDS011;11965;53.640;10.050;2023-02-28T14:15:47;4.28;;;4.27;;
23573;SDS011;11965;53.640;10.050;2023-02-28T14:18:23;4.54;;;4.54;;
23573;SDS011;11965;53.640;10.050;2023-02-28T14:20:55;3.95;;;3.95;;
23573;SDS011;11965;53.640;10.050;2023-02-28T14:23:35;4.11;;;4.11;;
23573;SDS011;11965;53.640;10.050;2023-02-28T14:26:19;4.22;;;4.22;;
23573;SDS011;11965;53.640;10.050;2023-02-28T14:29:08;4.12;;;4.12;;
23573;SDS011;11965;53.640;10.050;2023-02-28T14:31:58;4.37;;;4.37;;
23573;SDS011;11965;53.640;10.050;2023-02-28T14:34:36;3.78;;;3.78;;
23573;SDS011;11965;53.640;10.050;2023-02-28T14:37:13;4.04;;;4.04;;
23573;SDS011;11965;53.640;10.050;2023-02-28T14:39:47;3.98;;;3.98;;
23573;SDS011;11965;53.640;10.050;2023-02-28T14:42:27;3.92;;;3.92;;
23573;SDS011;11965;53.640;10.050;2023-02-28T14:44:56;3.81;;;3.79;;
23573;SDS011;11965;53.640;10.050;2023-02-28T14:47:24;3.94;;;3.94;;
23573;SDS011;11965;53.640;10.050;2023-02-28T14:49:58;4.21;;;4.21;;
23573;SDS011;11965;53.640;10.050;2023-02-28T14:52:26;4.32;;;4.31;;
23573;SDS011;11965;53.640;10.050;2023-02-28T14:54:57;4.34;;;4.32;;
23573;SDS011;11965;53.640;10.050;2023-02-28T14:57:30;3.98;;;3.97;;
23573;SDS011;11965;53.640;10.050;2023-02-28T14:59:59;5.73;;;5.71;;
23573;SDS011;11965;53.640;10.050;2023-02-28T15:02:30;4.37;;;4.36;;
23573;SDS011;11965;53.640;10.050;2023-02-28T15:05:02;4.41;;;4.40;;
23573;SDS011;11965;53.640;10.050;2023-02-28T15:07:47;5.42;;;5.42;;
23573;SDS011;11965;53.640;10.050;2023-02-28T15:10:21;6.39;;;6.37;;
23573;SDS011;11965;53.640;10.050;2023-02-28T15:12:52;6.54;;;6.42;;
23573;SDS011;11965;53.640;10.050;2023-02-28T15:15:22;4.47;;;4.44;;
23573;SDS011;11965;53.640;10.050;2023-02-28T15:17:56;4.48;;;4.46;;
23573;SDS011;11965;53.640;10.050;2023-02-28T15:20:27;4.24;;;4.24;;
23573;SDS011;11965;53.640;10.050;2023-02-28T15:22:54;4.22;;;4.22;;
23573;SDS011;11965;53.640;10.050;2023-02-28T15:25:25;4.12;;;4.12;;
23573;SDS011;11965;53.640;10.050;2023-02-28T15:27:54;4.61;;;4.61;;
23573;SDS011;11965;53.640;10.050;2023-02-28T15:30:24;3.88;;;3.88;;
23573;SDS011;11965;53.640;10.050;2023-02-28T15:33:04;4.03;;;4.03;;